sensor_id;sensor_type;location;lat;lon;timestamp;temperature;humidity
2062;DHT22;11070;51.336;12.340;2022-12-18T20:56:45;-2.60;1.00
2062;DHT22;11070;51.336;12.340;2022-12-18T20:59:11;-2.40;1.00
2062;DHT22;11070;51.336;12.340;2022-12-18T21:01:37;-2.50;1.00
2062;DHT22;11070;51.336;12.340;2022-12-18T21:04:03;-2.50;1.00
2062;DHT22;11070;51.336;12.340;2022-12-18T21:06:29;-2.50;1.00
2062;DHT22;11070;51.336;12.340;2022-12-18T21:08:55;-2.40;1.00
2062;DHT22;11070;51.336;12.340;2022-12-18T21:14:11;-2.30;1.00
2062;DHT22;11070;51.336;12.340;2022-12-18T21:16:38;-2.40;1.00
2062;DHT22;11070;51.336;12.340;2022-12-18T21:19:04;-2.50;1.00
2062;DHT22;11070;51.336;12.340;2022-12-18T21:21:30;-2.40;1.00
2062;DHT22;11070;51.336;12.340;2022-12-18T21:23:56;-2.40;1.00
2062;DHT22;11070;51.336;12.340;2022-12-18T21:26:26;-2.40;1.00
2062;DHT22;11070;51.336;12.340;2022-12-18T21:28:57;-2.50;1.00
2062;DHT22;11070;51.336;12.340;2022-12-18T21:31:24;-2.50;1.00
2062;DHT22;11070;51.336;12.340;2022-12-18T21:33:51;-2.50;1.00
2062;DHT22;11070;51.336;12.340;2022-12-18T21:36:17;-2.40;1.00
2062;DHT22;11070;51.336;12.340;2022-12-18T21:38:43;-2.40;1.00
2062;DHT22;11070;51.336;12.340;2022-12-18T21:41:10;-2.40;1.00
2062;DHT22;11070;51.336;12.340;2022-12-18T21:43:59;-2.40;1.00
2062;DHT22;11070;51.336;12.340;2022-12-18T21:46:37;-2.30;1.00
2062;DHT22;11070;51.336;12.340;2022-12-18T21:49:05;-2.20;1.00
2062;DHT22;11070;51.336;12.340;2022-12-18T21:51:32;-2.10;1.00
2062;DHT22;11070;51.336;12.340;2022-12-18T21:53:59;-2.10;1.00
2062;DHT22;11070;51.336;12.340;2022-12-18T21:56:40;-2.20;1.00
2062;DHT22;11070;51.336;12.340;2022-12-18T21:59:06;-2.20;1.00
2062;DHT22;11070;51.336;12.340;2022-12-18T22:01:32;-2.20;1.00
2062;DHT22;11070;51.336;12.340;2022-12-18T22:03:58;-2.20;1.00
2062;DHT22;11070;51.336;12.340;2022-12-18T22:06:24;-2.20;1.00
2062;DHT22;11070;51.336;12.340;2022-12-18T22:08:50;-2.20;1.00
2062;DHT22;11070;51.336;12.340;2022-12-18T22:11:15;-2.10;1.00
2062;DHT22;11070;51.336;12.340;2022-12-18T22:13:41;-2.10;1.00
2062;DHT22;11070;51.336;12.340;2022-12-18T22:16:07;-2.20;1.00
2062;DHT22;11070;51.336;12.340;2022-12-18T22:18:32;-2.10;1.00
2062;DHT22;11070;51.336;12.340;2022-12-18T22:21:05;-2.10;1.00
2062;DHT22;11070;51.336;12.340;2022-12-18T22:23:31;-2.10;1.00
2062;DHT22;11070;51.336;12.340;2022-12-18T22:25:56;-2.00;1.00
2062;DHT22;11070;51.336;12.340;2022-12-18T22:28:22;-2.20;1.00
2062;DHT22;11070;51.336;12.340;2022-12-18T22:31:07;-2.20;1.00
2062;DHT22;11070;51.336;12.340;2022-12-18T22:33:33;-2.10;1.00
2062;DHT22;11070;51.336;12.340;2022-12-18T22:36:06;-2.10;1.00
2062;DHT22;11070;51.336;12.340;2022-12-18T22:38:32;-2.00;1.00
2062;DHT22;11070;51.336;12.340;2022-12-18T22:40:58;-2.10;1.00
2062;DHT22;11070;51.336;12.340;2022-12-18T22:43:24;-2.00;1.00
2062;DHT22;11070;51.336;12.340;2022-12-18T22:45:50;-2.00;1.00
2062;DHT22;11070;51.336;12.340;2022-12-18T22:48:15;-2.00;1.00
2062;DHT22;11070;51.336;12.340;2022-12-18T22:50:41;-2.10;1.00
2062;DHT22;11070;51.336;12.340;2022-12-18T22:53:07;-2.10;1.00
2062;DHT22;11070;51.336;12.340;2022-12-18T22:55:33;-2.10;1.00
2062;DHT22;11070;51.336;12.340;2022-12-18T22:57:59;-2.20;1.00
2062;DHT22;11070;51.336;12.340;2022-12-18T23:00:24;-2.20;1.00
2062;DHT22;11070;51.336;12.340;2022-12-18T23:02:51;-2.20;1.00
2062;DHT22;11070;51.336;12.340;2022-12-18T23:05:17;-2.10;1.00
2062;DHT22;11070;51.336;12.340;2022-12-18T23:07:42;-2.20;1.00
2062;DHT22;11070;51.336;12.340;2022-12-18T23:10:08;-2.20;1.00
2062;DHT22;11070;51.336;12.340;2022-12-18T23:12:34;-2.10;1.00
2062;DHT22;11070;51.336;12.340;2022-12-18T23:15:02;-2.10;1.00
2062;DHT22;11070;51.336;12.340;2022-12-18T23:17:28;-2.10;1.00
2062;DHT22;11070;51.336;12.340;2022-12-18T23:19:54;-2.10;10.00
2062;DHT22;11070;51.336;12.340;2022-12-18T23:22:20;-2.10;4.10
2062;DHT22;11070;51.336;12.340;2022-12-18T23:24:47;-2.10;23.40
2062;DHT22;11070;51.336;12.340;2022-12-18T23:27:13;-2.10;15.00
2062;DHT22;11070;51.336;12.340;2022-12-18T23:29:39;-2.10;16.00
2062;DHT22;11070;51.336;12.340;2022-12-18T23:32:05;-2.10;1.00
2062;DHT22;11070;51.336;12.340;2022-12-18T23:34:31;-2.20;4.90
2062;DHT22;11070;51.336;12.340;2022-12-18T23:36:57;-2.20;12.50
2062;DHT22;11070;51.336;12.340;2022-12-18T23:39:23;-2.20;52.70
2062;DHT22;11070;51.336;12.340;2022-12-18T23:41:48;-2.20;43.30
2062;DHT22;11070;51.336;12.340;2022-12-18T23:44:14;-2.20;4.10
2062;DHT22;11070;51.336;12.340;2022-12-18T23:46:40;-2.20;45.40
2062;DHT22;11070;51.336;12.340;2022-12-18T23:49:05;-2.20;69.20
2062;DHT22;11070;51.336;12.340;2022-12-18T23:51:31;-2.20;99.90
2062;DHT22;11070;51.336;12.340;2022-12-18T23:53:58;-2.10;76.80
2062;DHT22;11070;51.336;12.340;2022-12-18T23:56:25;-2.00;11.50
2062;DHT22;11070;51.336;12.340;2022-12-18T23:58:52;-2.00;22.70
